Time;durP1;ratioP1;P1;durP2;ratioP2;P2;SDS_P1;SDS_P2;PMS_P1;PMS_P2;Temp;Humidity;BMP_temperature;BMP_pressure;BME280_temperature;BME280_humidity;BME280_pressure;Samples;Min_cycle;Max_cycle;Signal;HPM_P1;HPM_P2
2023/10/08 00:00:49;;;;;;;4.00;1.17;;;;;;;;;;4966091;28;20043;-79
2023/10/08 00:03:17;;;;;;;4.93;1.00;;;;;;;;;;4960276;28;20109;-80
2023/10/08 00:05:42;;;;;;;4.20;1.30;;;;;;;;;;4965729;28;20039;-80
2023/10/08 00:08:09;;;;;;;3.55;1.00;;;;;;;;;;4946439;28;20054;-80
2023/10/08 00:10:41;;;;;;;4.57;1.05;;;;;;;;;;4940435;28;20055;-80
2023/10/08 00:13:09;;;;;;;3.60;1.08;;;;;;;;;;4960222;28;20085;-80
2023/10/08 00:15:59;;;;;;;6.40;1.15;;;;;;;;;;4959487;28;20908;-79
2023/10/08 00:18:25;;;;;;;4.53;1.30;;;;;;;;;;4967603;28;20043;-80
2023/10/08 00:20:58;;;;;;;4.88;1.25;;;;;;;;;;4960633;28;20035;-80
2023/10/08 00:23:25;;;;;;;4.50;1.10;;;;;;;;;;4959714;28;20382;-81
2023/10/08 00:25:55;;;;;;;6.50;1.30;;;;;;;;;;4964574;28;20344;-79
2023/10/08 00:28:24;;;;;;;5.30;0.98;;;;;;;;;;4943476;28;20569;-80
2023/10/08 00:30:50;;;;;;;4.22;1.00;;;;;;;;;;4964927;28;20505;-80
2023/10/08 00:33:16;;;;;;;2.45;0.82;;;;;;;;;;4943019;28;20043;-80
2023/10/08 00:35:42;;;;;;;4.20;1.10;;;;;;;;;;4943104;28;20582;-79
2023/10/08 00:38:20;;;;;;;4.38;1.13;;;;;;;;;;4942110;28;20145;-80
2023/10/08 00:40:48;;;;;;;5.97;1.00;;;;;;;;;;4978734;28;20031;-80
2023/10/08 00:43:36;;;;;;;5.47;1.20;;;;;;;;;;4958399;28;20514;-80
2023/10/08 00:46:18;;;;;;;3.92;1.00;;;;;;;;;;4974722;28;20034;-80
2023/10/08 00:48:45;;;;;;;3.30;1.10;;;;;;;;;;4959109;28;20050;-80
2023/10/08 00:51:40;;;;;;;6.25;1.08;;;;;;;;;;4949398;28;20070;-80
2023/10/08 00:54:05;;;;;;;4.75;1.25;;;;;;;;;;4964219;28;20045;-80
2023/10/08 00:59:41;;;;;;;4.45;1.13;;;;;;;;;;4916402;28;20388;-80
2023/10/08 01:02:14;;;;;;;7.40;2.15;;;;;;;;;;4963873;28;20498;-80
2023/10/08 01:04:39;;;;;;;6.55;1.40;;;;;;;;;;4948831;28;20477;-80
2023/10/08 01:07:16;;;;;;;3.60;1.23;;;;;;;;;;4947327;28;20058;-81
2023/10/08 01:09:42;;;;;;;6.85;1.45;;;;;;;;;;4945721;28;20105;-80
2023/10/08 01:12:33;;;;;;;5.07;1.50;;;;;;;;;;4956540;28;20039;-79
2023/10/08 01:15:23;;;;;;;5.40;1.58;;;;;;;;;;4957076;28;20278;-80
2023/10/08 01:17:58;;;;;;;7.18;1.63;;;;;;;;;;4958762;28;20035;-81
2023/10/08 01:20:49;;;;;;;5.75;1.30;;;;;;;;;;4959396;28;20474;-81
2023/10/08 01:23:16;;;;;;;4.95;1.30;;;;;;;;;;4960162;28;20129;-81
2023/10/08 01:25:52;;;;;;;;;;;;;;;;;;4964939;28;20046;-81
2023/10/08 01:28:25;;;;;;;7.65;1.50;;;;;;;;;;4965099;28;21067;-81
2023/10/08 01:30:55;;;;;;;5.90;1.40;;;;;;;;;;4943175;28;20070;-81
2023/10/08 01:33:22;;;;;;;5.70;1.35;;;;;;;;;;4958767;28;20038;-81
2023/10/08 01:35:50;;;;;;;6.47;1.52;;;;;;;;;;4959049;28;20114;-81
2023/10/08 01:38:22;;;;;;;6.10;1.60;;;;;;;;;;4965424;28;20066;-80
2023/10/08 01:40:50;;;;;;;6.80;1.50;;;;;;;;;;4948130;28;20410;-81
2023/10/08 01:43:17;;;;;;;7.88;1.50;;;;;;;;;;4941376;28;20359;-80
2023/10/08 01:45:42;;;;;;;6.97;1.60;;;;;;;;;;4963504;28;21096;-81
2023/10/08 01:48:11;;;;;;;6.75;1.70;;;;;;;;;;4958768;28;20054;-81
2023/10/08 01:50:37;;;;;;;6.88;1.70;;;;;;;;;;4960060;28;20419;-79
2023/10/08 01:53:05;;;;;;;6.55;2.00;;;;;;;;;;4963372;28;20101;-78
2023/10/08 01:55:45;;;;;;;10.68;2.42;;;;;;;;;;4947755;28;20143;-79
2023/10/08 01:58:11;;;;;;;7.07;2.00;;;;;;;;;;4948548;28;20062;-79
2023/10/08 02:00:37;;;;;;;6.93;2.07;;;;;;;;;;4941364;28;20138;-79
2023/10/08 02:03:24;;;;;;;8.02;2.38;;;;;;;;;;4947254;28;20126;-79
2023/10/08 02:05:53;;;;;;;6.80;2.50;;;;;;;;;;4957286;28;20093;-79
2023/10/08 02:08:19;;;;;;;8.50;2.75;;;;;;;;;;4974260;28;20110;-79
2023/10/08 02:10:48;;;;;;;8.25;2.85;;;;;;;;;;4940372;28;20507;-79
2023/10/08 02:13:14;;;;;;;9.48;3.30;;;;;;;;;;4948105;28;20035;-79
2023/10/08 02:15:53;;;;;;;11.73;3.08;;;;;;;;;;4972687;28;20447;-79
2023/10/08 02:18:19;;;;;;;13.68;3.15;;;;;;;;;;4963360;28;20454;-79
2023/10/08 02:20:45;;;;;;;12.82;3.38;;;;;;;;;;4977901;28;20043;-79
2023/10/08 02:23:13;;;;;;;9.85;3.30;;;;;;;;;;4958219;28;20061;-79
2023/10/08 02:25:40;;;;;;;12.90;3.25;;;;;;;;;;4957531;28;20094;-79
2023/10/08 02:28:09;;;;;;;9.45;3.40;;;;;;;;;;4964431;28;20546;-79
2023/10/08 02:30:36;;;;;;;9.95;3.72;;;;;;;;;;4940614;28;20046;-79
2023/10/08 02:33:02;;;;;;;10.23;3.50;;;;;;;;;;4962709;28;20042;-78
2023/10/08 02:35:27;;;;;;;8.23;3.22;;;;;;;;;;4963035;28;20112;-79
2023/10/08 02:37:54;;;;;;;9.93;3.53;;;;;;;;;;4937969;28;20568;-79
2023/10/08 02:40:26;;;;;;;8.80;3.00;;;;;;;;;;4970789;28;20031;-79
2023/10/08 02:42:57;;;;;;;9.07;3.35;;;;;;;;;;4941699;28;20496;-79
2023/10/08 02:45:25;;;;;;;12.60;3.40;;;;;;;;;;4959371;28;20092;-79
2023/10/08 02:47:52;;;;;;;7.72;3.22;;;;;;;;;;4959939;28;20394;-79
2023/10/08 02:50:18;;;;;;;9.55;3.78;;;;;;;;;;4940563;28;20062;-78
2023/10/08 02:52:46;;;;;;;12.88;3.80;;;;;;;;;;4963964;28;20052;-79
2023/10/08 02:58:10;;;;;;;10.35;4.20;;;;;;;;;;4958301;28;20376;-79
2023/10/08 03:00:36;;;;;;;7.90;3.10;;;;;;;;;;4956991;28;20121;-79
2023/10/08 03:03:09;;;;;;;11.02;3.40;;;;;;;;;;4961845;28;20153;-79
2023/10/08 03:05:35;;;;;;;9.20;2.90;;;;;;;;;;4936905;28;20045;-79
2023/10/08 03:08:10;;;;;;;8.98;3.47;;;;;;;;;;4959006;28;20447;-79
2023/10/08 03:10:37;;;;;;;9.18;2.83;;;;;;;;;;4955059;28;20414;-79
2023/10/08 03:13:07;;;;;;;8.25;2.95;;;;;;;;;;4946877;28;20050;-79
2023/10/08 03:16:27;;;;;;;13.73;3.35;;;;;;;;;;4962832;28;20498;-79
2023/10/08 03:18:21;;;;;;;13.02;3.92;;;;;;;;;;4951113;28;20039;-79
2023/10/08 03:20:48;;;;;;;;;;;;;;;;;;4956334;28;20495;-79
2023/10/08 03:26:09;;;;;;;11.88;3.20;;;;;;;;;;4954405;28;20140;-79
2023/10/08 03:28:34;;;;;;;12.10;3.08;;;;;;;;;;4954665;28;20368;-79
2023/10/08 03:31:04;;;;;;;14.15;3.78;;;;;;;;;;4954640;28;20042;-79
2023/10/08 03:33:34;;;;;;;11.00;3.08;;;;;;;;;;4955539;28;20624;-79
2023/10/08 03:36:09;;;;;;;9.88;2.92;;;;;;;;;;4978221;28;20391;-79
2023/10/08 03:38:44;;;;;;;9.10;3.22;;;;;;;;;;4942482;28;20047;-79
2023/10/08 03:41:16;;;;;;;10.07;3.25;;;;;;;;;;4947375;28;20043;-79
2023/10/08 03:46:30;;;;;;;12.50;3.42;;;;;;;;;;4969927;28;20394;-79
2023/10/08 03:48:57;;;;;;;9.68;3.30;;;;;;;;;;4946959;28;20121;-80
2023/10/08 03:51:26;;;;;;;9.13;2.95;;;;;;;;;;4955346;28;20034;-80
2023/10/08 03:54:42;;;;;;;8.48;3.28;;;;;;;;;;4970769;28;20042;-80
2023/10/08 03:56:37;;;;;;;10.27;3.38;;;;;;;;;;4941091;28;20126;-80
2023/10/08 03:59:12;;;;;;;10.73;3.45;;;;;;;;;;4956346;28;20503;-80
2023/10/08 04:01:39;;;;;;;12.52;3.38;;;;;;;;;;4969751;28;20043;-80
2023/10/08 04:04:14;;;;;;;10.02;3.28;;;;;;;;;;4955428;28;20054;-80
2023/10/08 04:06:54;;;;;;;10.93;3.20;;;;;;;;;;4948100;28;20543;-80
2023/10/08 04:09:25;;;;;;;11.57;3.92;;;;;;;;;;4955758;28;20483;-80
2023/10/08 04:11:51;;;;;;;8.38;3.25;;;;;;;;;;4946245;28;20558;-79
2023/10/08 04:14:24;;;;;;;9.35;3.53;;;;;;;;;;4971671;28;20396;-79
2023/10/08 04:16:51;;;;;;;9.50;3.50;;;;;;;;;;4945282;28;20054;-81
2023/10/08 04:19:21;;;;;;;12.70;3.60;;;;;;;;;;4956358;28;20047;-80
2023/10/08 04:21:53;;;;;;;9.60;3.45;;;;;;;;;;4938056;28;20034;-76
2023/10/08 04:24:28;;;;;;;10.43;3.40;;;;;;;;;;4955723;28;20039;-76
2023/10/08 04:26:56;;;;;;;8.45;3.20;;;;;;;;;;4939973;28;20027;-76
2023/10/08 04:29:22;;;;;;;11.18;3.33;;;;;;;;;;4954529;28;20863;-76
2023/10/08 04:32:00;;;;;;;15.25;3.65;;;;;;;;;;4944654;28;26203;-76
2023/10/08 04:34:27;;;;;;;9.50;3.22;;;;;;;;;;4956028;28;20039;-76
2023/10/08 04:36:57;;;;;;;12.07;3.28;;;;;;;;;;4955403;28;20462;-76
2023/10/08 04:39:31;;;;;;;17.35;4.95;;;;;;;;;;4939829;28;20039;-76
2023/10/08 04:41:59;;;;;;;11.07;3.60;;;;;;;;;;4976735;28;20521;-76
2023/10/08 04:44:25;;;;;;;12.30;3.50;;;;;;;;;;4942262;28;20038;-76
2023/10/08 04:46:52;;;;;;;13.88;3.85;;;;;;;;;;4975009;28;20516;-76
2023/10/08 04:49:28;;;;;;;14.60;3.40;;;;;;;;;;4966446;28;20110;-76
2023/10/08 04:51:58;;;;;;;12.40;4.53;;;;;;;;;;4957759;28;20058;-77
2023/10/08 04:54:31;;;;;;;12.73;4.00;;;;;;;;;;4958881;28;20038;-77
2023/10/08 04:57:00;;;;;;;10.57;4.00;;;;;;;;;;4974675;28;20070;-77
2023/10/08 04:59:33;;;;;;;11.15;3.83;;;;;;;;;;4964972;28;20043;-76
2023/10/08 05:07:21;;;;;;;12.48;3.65;;;;;;;;;;4957772;28;20399;-77
2023/10/08 05:12:37;;;;;;;10.18;3.60;;;;;;;;;;4972742;28;20030;-77
2023/10/08 05:18:54;;;;;;;12.95;3.70;;;;;;;;;;4957806;28;20039;-77
2023/10/08 05:20:40;;;;;;;12.15;4.07;;;;;;;;;;4955586;28;20388;-77
2023/10/08 05:28:35;;;;;;;10.07;5.15;;;;;;;;;;4956326;28;20049;-77
2023/10/08 05:36:50;;;;;;;9.43;4.13;;;;;;;;;;4957608;28;20130;-76
2023/10/08 05:40:11;;;;;;;14.80;4.00;;;;;;;;;;4956575;28;20062;-77
2023/10/08 05:42:13;;;;;;;13.10;4.28;;;;;;;;;;4950300;28;20038;-76
2023/10/08 05:44:43;;;;;;;12.32;3.90;;;;;;;;;;4959082;28;20039;-77
2023/10/08 05:49:54;;;;;;;13.57;3.75;;;;;;;;;;4971729;28;20046;-76
2023/10/08 05:52:27;;;;;;;12.55;3.97;;;;;;;;;;4959631;28;20110;-77
2023/10/08 05:55:15;;;;;;;12.27;3.75;;;;;;;;;;4941281;28;20827;-77
2023/10/08 05:57:46;;;;;;;14.23;4.63;;;;;;;;;;4942644;28;20612;-76
2023/10/08 06:13:06;;;;;;;10.70;3.50;;;;;;;;;;4957355;28;20798;-77
2023/10/08 06:15:48;;;;;;;12.63;3.75;;;;;;;;;;4959023;28;20062;-77
2023/10/08 06:18:18;;;;;;;11.40;3.25;;;;;;;;;;4956976;28;20042;-77
2023/10/08 06:20:45;;;;;;;10.30;3.72;;;;;;;;;;4963364;28;20491;-77
2023/10/08 06:23:20;;;;;;;9.93;3.15;;;;;;;;;;4948047;28;20466;-77
2023/10/08 06:26:05;;;;;;;9.10;2.80;;;;;;;;;;4940584;28;20037;-77
2023/10/08 06:28:34;;;;;;;10.50;3.15;;;;;;;;;;4942331;28;20083;-77
2023/10/08 06:31:01;;;;;;;8.57;3.00;;;;;;;;;;4956221;28;20039;-76
2023/10/08 06:33:30;;;;;;;13.40;4.22;;;;;;;;;;4957687;28;20034;-77
2023/10/08 06:36:01;;;;;;;11.15;3.50;;;;;;;;;;4947130;28;20466;-77
2023/10/08 06:38:33;;;;;;;8.00;3.45;;;;;;;;;;4958082;28;20039;-77
2023/10/08 06:41:00;;;;;;;11.77;3.20;;;;;;;;;;4968041;28;20376;-77
2023/10/08 06:43:28;;;;;;;10.57;3.25;;;;;;;;;;4964554;28;20039;-77
2023/10/08 06:45:57;;;;;;;7.75;2.70;;;;;;;;;;4961747;28;20121;-77
2023/10/08 06:48:24;;;;;;;11.55;2.95;;;;;;;;;;4941667;28;20077;-77
2023/10/08 06:50:50;;;;;;;10.50;3.60;;;;;;;;;;4954339;28;20031;-78
2023/10/08 06:53:18;;;;;;;11.07;3.13;;;;;;;;;;4955341;28;20527;-77
2023/10/08 06:55:56;;;;;;;12.40;3.13;;;;;;;;;;4945454;28;20039;-77
2023/10/08 06:58:24;;;;;;;7.88;2.97;;;;;;;;;;4941515;28;20431;-77
2023/10/08 07:00:51;;;;;;;10.20;3.20;;;;;;;;;;4957734;28;20048;-77
2023/10/08 07:03:20;;;;;;;9.50;3.30;;;;;;;;;;4947329;28;20058;-77
2023/10/08 07:08:42;;;;;;;8.25;2.70;;;;;;;;;;4950948;28;20043;-77
2023/10/08 07:11:11;;;;;;;10.07;2.70;;;;;;;;;;4954046;28;20098;-77
2023/10/08 07:13:37;;;;;;;9.82;3.80;;;;;;;;;;4957727;28;20114;-76
2023/10/08 07:16:04;;;;;;;9.25;2.55;;;;;;;;;;4953820;28;20746;-77
2023/10/08 07:18:33;;;;;;;10.18;2.22;;;;;;;;;;4955571;28;20110;-78
2023/10/08 07:21:11;;;;;;;7.00;2.30;;;;;;;;;;4965335;28;20141;-78
2023/10/08 07:23:53;;;;;;;6.40;2.20;;;;;;;;;;4955814;28;20066;-78
2023/10/08 07:26:23;;;;;;;9.15;1.85;;;;;;;;;;4947981;28;20411;-78
2023/10/08 07:28:51;;;;;;;6.35;2.08;;;;;;;;;;4958147;28;20148;-77
2023/10/08 07:31:20;;;;;;;;;;;;;;;;;;4954834;28;20130;-77
2023/10/08 07:33:56;;;;;;;6.18;1.83;;;;;;;;;;4971365;28;19914;-78
2023/10/08 07:36:26;;;;;;;8.70;2.00;;;;;;;;;;4960613;28;20097;-78
2023/10/08 07:38:52;;;;;;;4.95;1.48;;;;;;;;;;4946673;28;20043;-77
2023/10/08 07:41:20;;;;;;;5.75;1.70;;;;;;;;;;4972451;28;20562;-77
2023/10/08 07:43:55;;;;;;;5.28;1.48;;;;;;;;;;4961623;28;20041;-77
2023/10/08 07:46:26;;;;;;;5.68;1.40;;;;;;;;;;4954070;28;20030;-77
2023/10/08 07:48:51;;;;;;;7.85;1.50;;;;;;;;;;4972205;28;20039;-78
2023/10/08 07:51:23;;;;;;;10.93;1.55;;;;;;;;;;4937231;28;20125;-77
2023/10/08 07:53:58;;;;;;;3.90;1.35;;;;;;;;;;4973051;28;20058;-78
2023/10/08 07:56:24;;;;;;;6.78;1.58;;;;;;;;;;4956250;28;20045;-78
2023/10/08 07:58:56;;;;;;;4.57;1.20;;;;;;;;;;4954536;28;20043;-77
2023/10/08 08:01:24;;;;;;;4.03;1.30;;;;;;;;;;4954961;28;20574;-78
2023/10/08 08:03:53;;;;;;;5.30;1.35;;;;;;;;;;4962356;28;20039;-77
2023/10/08 08:06:18;;;;;;;5.22;1.20;;;;;;;;;;4955801;28;20494;-77
2023/10/08 08:08:44;;;;;;;4.75;1.30;;;;;;;;;;4945962;28;20058;-77
2023/10/08 08:11:13;;;;;;;5.05;1.23;;;;;;;;;;4957813;28;20048;-77
2023/10/08 08:13:44;;;;;;;3.20;1.15;;;;;;;;;;4971694;28;20050;-80
2023/10/08 08:16:16;;;;;;;3.50;1.05;;;;;;;;;;4975736;28;20035;-78
2023/10/08 08:18:52;;;;;;;4.15;1.10;;;;;;;;;;4958642;28;20504;-78
2023/10/08 08:21:19;;;;;;;5.47;1.33;;;;;;;;;;4958266;28;20053;-78
2023/10/08 08:23:48;;;;;;;5.88;1.30;;;;;;;;;;4958868;28;20053;-78
2023/10/08 08:26:26;;;;;;;6.43;1.00;;;;;;;;;;4961615;28;20041;-78
2023/10/08 08:29:00;;;;;;;4.47;1.13;;;;;;;;;;4960354;28;20101;-76
2023/10/08 08:31:26;;;;;;;5.68;1.13;;;;;;;;;;4958616;28;20038;-77
2023/10/08 08:33:53;;;;;;;3.50;1.00;;;;;;;;;;4958385;28;20114;-77
2023/10/08 08:36:21;;;;;;;4.85;1.05;;;;;;;;;;4947532;28;20035;-77
2023/10/08 08:38:47;;;;;;;4.18;1.08;;;;;;;;;;4959289;28;20047;-77
2023/10/08 08:41:13;;;;;;;5.65;1.27;;;;;;;;;;4941938;28;20031;-78
2023/10/08 08:43:44;;;;;;;3.17;1.00;;;;;;;;;;4948682;28;20039;-78
2023/10/08 08:46:12;;;;;;;3.33;0.93;;;;;;;;;;4941243;28;20041;-77
2023/10/08 08:48:41;;;;;;;3.58;1.00;;;;;;;;;;4944091;28;20075;-78
2023/10/08 08:51:09;;;;;;;5.93;1.10;;;;;;;;;;4941313;28;20050;-78
2023/10/08 08:53:37;;;;;;;6.20;1.23;;;;;;;;;;4959298;28;20043;-77
2023/10/08 08:56:06;;;;;;;4.93;1.20;;;;;;;;;;4957252;28;20035;-77
2023/10/08 08:58:33;;;;;;;4.43;1.33;;;;;;;;;;4958966;28;20496;-76
2023/10/08 09:00:59;;;;;;;3.38;0.90;;;;;;;;;;4957066;28;20582;-77
2023/10/08 09:03:30;;;;;;;4.30;1.40;;;;;;;;;;4964035;28;20066;-76
2023/10/08 09:05:59;;;;;;;6.07;1.45;;;;;;;;;;4949862;28;20557;-77
2023/10/08 09:08:45;;;;;;;4.60;1.30;;;;;;;;;;4974732;28;20035;-77
2023/10/08 09:11:15;;;;;;;2.88;0.90;;;;;;;;;;4963542;28;20046;-76
2023/10/08 09:13:41;;;;;;;5.25;1.00;;;;;;;;;;4942182;28;20039;-77
2023/10/08 09:16:08;;;;;;;3.22;0.80;;;;;;;;;;4957979;28;20043;-77
2023/10/08 09:18:33;;;;;;;4.45;1.02;;;;;;;;;;4951677;28;20451;-77
2023/10/08 09:21:13;;;;;;;2.60;0.90;;;;;;;;;;4963821;28;20114;-76
2023/10/08 09:23:47;;;;;;;4.25;0.95;;;;;;;;;;4955539;28;20039;-77
2023/10/08 09:26:16;;;;;;;4.28;1.10;;;;;;;;;;4943671;28;20038;-77
2023/10/08 09:28:49;;;;;;;3.78;1.00;;;;;;;;;;4940849;28;20039;-77
2023/10/08 09:31:15;;;;;;;3.33;1.15;;;;;;;;;;4957639;28;20038;-77
2023/10/08 09:33:41;;;;;;;4.13;0.98;;;;;;;;;;4956576;28;20039;-76
2023/10/08 09:36:10;;;;;;;2.70;0.75;;;;;;;;;;4975754;28;20049;-77
2023/10/08 09:38:37;;;;;;;3.03;0.70;;;;;;;;;;4958793;28;20053;-77
2023/10/08 09:41:03;;;;;;;2.72;0.68;;;;;;;;;;4973862;28;20497;-76
2023/10/08 09:43:29;;;;;;;3.72;0.80;;;;;;;;;;4948522;28;20035;-77
2023/10/08 09:46:19;;;;;;;3.15;0.80;;;;;;;;;;4957239;28;20158;-77
2023/10/08 09:48:59;;;;;;;2.25;0.70;;;;;;;;;;4948487;28;20062;-77
2023/10/08 09:51:29;;;;;;;3.22;0.80;;;;;;;;;;4947709;28;20121;-77
2023/10/08 09:54:04;;;;;;;1.80;0.68;;;;;;;;;;4957163;28;20130;-77
2023/10/08 09:56:31;;;;;;;2.15;0.70;;;;;;;;;;4958777;28;20533;-76
2023/10/08 09:58:56;;;;;;;3.60;0.93;;;;;;;;;;4958249;28;20098;-76
2023/10/08 10:01:22;;;;;;;2.75;0.75;;;;;;;;;;4958424;28;20436;-76
2023/10/08 10:03:49;;;;;;;2.58;0.55;;;;;;;;;;4957791;28;20042;-77
2023/10/08 10:06:17;;;;;;;2.73;0.63;;;;;;;;;;4946880;28;20543;-77
2023/10/08 10:08:43;;;;;;;3.67;0.77;;;;;;;;;;4963512;28;20899;-77
2023/10/08 10:11:10;;;;;;;2.45;0.60;;;;;;;;;;4972043;28;20446;-76
2023/10/08 10:13:41;;;;;;;1.52;0.52;;;;;;;;;;4941650;28;20506;-77
2023/10/08 10:16:09;;;;;;;3.45;0.60;;;;;;;;;;4947080;28;20493;-76
2023/10/08 10:18:34;;;;;;;2.30;0.80;;;;;;;;;;4957375;28;20136;-77
2023/10/08 10:21:12;;;;;;;3.03;0.80;;;;;;;;;;4961671;28;20509;-77
2023/10/08 10:23:42;;;;;;;3.15;0.80;;;;;;;;;;4959633;28;20051;-77
2023/10/08 10:26:34;;;;;;;5.43;0.70;;;;;;;;;;4955597;28;20054;-77
2023/10/08 10:29:14;;;;;;;2.95;0.80;;;;;;;;;;4946254;28;20098;-77
2023/10/08 10:31:52;;;;;;;2.75;0.70;;;;;;;;;;4961193;28;20047;-78
2023/10/08 10:34:28;;;;;;;2.83;0.60;;;;;;;;;;4955814;28;20431;-76
2023/10/08 10:36:58;;;;;;;2.72;0.63;;;;;;;;;;4956206;28;20034;-76
2023/10/08 10:39:27;;;;;;;2.40;0.70;;;;;;;;;;4977327;28;20135;-77
2023/10/08 10:42:01;;;;;;;2.83;0.90;;;;;;;;;;4954872;28;20031;-77
2023/10/08 10:44:32;;;;;;;2.65;0.70;;;;;;;;;;4955768;28;20042;-77
2023/10/08 10:57:43;;;;;;;1.67;0.50;;;;;;;;;;4961204;28;20430;-77
2023/10/08 11:00:46;;;;;;;1.67;0.50;;;;;;;;;;4960861;28;20045;-77
2023/10/08 11:03:09;;;;;;;1.73;0.50;;;;;;;;;;4958035;28;20656;-77
2023/10/08 11:05:37;;;;;;;2.70;0.75;;;;;;;;;;4930277;28;20069;-79
2023/10/08 11:08:05;;;;;;;2.00;0.70;;;;;;;;;;4974397;28;20122;-78
2023/10/08 11:10:34;;;;;;;;;;;;;;;;;;4959497;28;20057;-78
2023/10/08 11:13:01;;;;;;;1.85;0.40;;;;;;;;;;4971960;28;20371;-78
2023/10/08 11:15:37;;;;;;;2.47;0.70;;;;;;;;;;4954630;28;20493;-79
2023/10/08 11:18:10;;;;;;;2.47;0.50;;;;;;;;;;4960529;28;20107;-79
2023/10/08 11:20:44;;;;;;;2.60;0.55;;;;;;;;;;4953903;28;20464;-78
2023/10/08 11:23:35;;;;;;;1.95;0.50;;;;;;;;;;4977118;28;20035;-78
2023/10/08 11:26:03;;;;;;;1.40;0.45;;;;;;;;;;4959302;28;20125;-78
2023/10/08 11:28:41;;;;;;;4.45;0.80;;;;;;;;;;4938700;28;20038;-78
2023/10/08 11:31:10;;;;;;;2.08;0.60;;;;;;;;;;4967749;28;20035;-78
2023/10/08 11:33:39;;;;;;;2.28;0.80;;;;;;;;;;4950911;28;20598;-78
2023/10/08 11:36:27;;;;;;;2.20;0.60;;;;;;;;;;4952849;28;20035;-78
2023/10/08 11:38:53;;;;;;;2.47;0.70;;;;;;;;;;4968193;28;20596;-78
2023/10/08 11:41:22;;;;;;;3.00;0.65;;;;;;;;;;4954779;28;20055;-78
2023/10/08 11:43:58;;;;;;;2.20;0.50;;;;;;;;;;4944138;28;20050;-79
2023/10/08 11:46:27;;;;;;;1.38;0.40;;;;;;;;;;4945795;28;20477;-79
2023/10/08 11:48:57;;;;;;;1.42;0.40;;;;;;;;;;4956034;28;20034;-79
2023/10/08 11:51:23;;;;;;;2.03;0.50;;;;;;;;;;4955756;28;20442;-79
2023/10/08 11:53:49;;;;;;;2.05;0.50;;;;;;;;;;4961343;28;20046;-79
2023/10/08 11:56:15;;;;;;;2.15;0.50;;;;;;;;;;4964015;28;20097;-78
2023/10/08 11:58:44;;;;;;;2.35;0.60;;;;;;;;;;4978009;28;20051;-79
2023/10/08 12:01:15;;;;;;;1.70;0.57;;;;;;;;;;4959363;28;20090;-78
2023/10/08 12:03:45;;;;;;;3.17;0.50;;;;;;;;;;4949916;28;20507;-79
2023/10/08 12:06:18;;;;;;;1.40;0.40;;;;;;;;;;4940190;28;20065;-78
2023/10/08 12:08:47;;;;;;;1.85;0.50;;;;;;;;;;4965178;28;20491;-78
2023/10/08 12:11:13;;;;;;;2.05;0.60;;;;;;;;;;4963961;28;20038;-78
2023/10/08 12:13:44;;;;;;;3.35;0.60;;;;;;;;;;4958493;28;20831;-79
2023/10/08 12:16:17;;;;;;;2.40;0.52;;;;;;;;;;4958972;28;20502;-78
2023/10/08 12:18:43;;;;;;;2.28;0.65;;;;;;;;;;4943177;28;20047;-79
2023/10/08 12:21:15;;;;;;;2.78;0.88;;;;;;;;;;4942474;28;20431;-79
2023/10/08 12:23:43;;;;;;;2.60;0.52;;;;;;;;;;4949692;28;20089;-78
2023/10/08 12:26:15;;;;;;;2.00;0.40;;;;;;;;;;4940869;28;20119;-78
2023/10/08 12:28:42;;;;;;;3.22;0.80;;;;;;;;;;4964924;28;20439;-78
2023/10/08 12:31:10;;;;;;;1.70;0.50;;;;;;;;;;4960973;28;20043;-79
2023/10/08 12:33:35;;;;;;;;;;;;;;;;;;4960084;28;20301;-78
2023/10/08 12:36:12;;;;;;;1.70;0.45;;;;;;;;;;4969916;28;19918;-78
2023/10/08 12:38:42;;;;;;;2.17;0.50;;;;;;;;;;4957281;28;20067;-78
2023/10/08 12:41:11;;;;;;;2.20;0.60;;;;;;;;;;4964689;28;20039;-79
2023/10/08 12:43:38;;;;;;;2.38;0.60;;;;;;;;;;4958225;28;20125;-78
2023/10/08 12:46:10;;;;;;;2.10;0.60;;;;;;;;;;4939821;28;20049;-79
2023/10/08 12:48:36;;;;;;;2.08;0.50;;;;;;;;;;4958951;28;20043;-79
2023/10/08 12:51:05;;;;;;;1.95;0.40;;;;;;;;;;4947670;28;20958;-78
2023/10/08 12:53:34;;;;;;;3.00;0.70;;;;;;;;;;4976277;28;20042;-78
2023/10/08 12:56:05;;;;;;;1.60;0.50;;;;;;;;;;4957287;28;20456;-80
2023/10/08 12:58:39;;;;;;;2.03;0.50;;;;;;;;;;4942626;28;20508;-79
2023/10/08 13:01:07;;;;;;;2.38;0.60;;;;;;;;;;4958363;28;20041;-79
2023/10/08 13:03:32;;;;;;;2.80;0.50;;;;;;;;;;4962325;28;20047;-77
2023/10/08 13:06:04;;;;;;;1.52;0.50;;;;;;;;;;4947494;28;20938;-82
2023/10/08 13:08:36;;;;;;;2.20;0.70;;;;;;;;;;4964698;28;20035;-83
2023/10/08 13:11:01;;;;;;;2.63;0.70;;;;;;;;;;4961480;28;20049;-82
2023/10/08 13:13:34;;;;;;;2.65;0.60;;;;;;;;;;4949812;28;20043;-82
2023/10/08 13:16:07;;;;;;;2.92;0.60;;;;;;;;;;4977289;28;20031;-82
2023/10/08 13:18:43;;;;;;;2.22;0.65;;;;;;;;;;4951524;28;20057;-82
2023/10/08 13:21:09;;;;;;;4.35;0.50;;;;;;;;;;4947467;28;20043;-84
2023/10/08 13:23:38;;;;;;;2.17;0.70;;;;;;;;;;4904243;28;20078;-81
2023/10/08 13:26:09;;;;;;;2.78;0.57;;;;;;;;;;4951420;28;20035;-81
2023/10/08 13:28:36;;;;;;;3.30;0.60;;;;;;;;;;4956635;28;20046;-81
2023/10/08 13:31:11;;;;;;;1.80;0.47;;;;;;;;;;4954719;28;20035;-81
2023/10/08 13:33:40;;;;;;;2.90;0.70;;;;;;;;;;4957677;28;20173;-81
2023/10/08 13:36:13;;;;;;;2.42;0.68;;;;;;;;;;4938506;28;20038;-80
2023/10/08 13:38:40;;;;;;;2.78;0.50;;;;;;;;;;4947073;28;20430;-80
2023/10/08 13:41:18;;;;;;;2.63;0.75;;;;;;;;;;4931498;28;20041;-81
2023/10/08 13:43:51;;;;;;;4.03;0.70;;;;;;;;;;4963057;28;20047;-82
2023/10/08 13:46:17;;;;;;;2.78;0.70;;;;;;;;;;4962483;28;20031;-81
2023/10/08 13:48:49;;;;;;;2.90;0.88;;;;;;;;;;4947073;28;20050;-82
2023/10/08 13:51:20;;;;;;;2.20;0.43;;;;;;;;;;4971475;28;20066;-81
2023/10/08 13:53:52;;;;;;;3.28;0.90;;;;;;;;;;4959028;28;20550;-81
2023/10/08 13:56:20;;;;;;;1.58;0.50;;;;;;;;;;4956672;28;20039;-81
2023/10/08 13:58:49;;;;;;;1.90;0.60;;;;;;;;;;4945350;28;20833;-82
2023/10/08 14:01:19;;;;;;;2.75;0.70;;;;;;;;;;4956274;28;20430;-81
2023/10/08 14:03:55;;;;;;;2.33;0.65;;;;;;;;;;4940264;28;20039;-80
2023/10/08 14:06:21;;;;;;;2.03;0.50;;;;;;;;;;4946493;28;20535;-81
2023/10/08 14:08:54;;;;;;;2.28;0.70;;;;;;;;;;4972612;28;20361;-81
2023/10/08 14:11:23;;;;;;;2.00;0.63;;;;;;;;;;4956463;28;20432;-80
2023/10/08 14:13:52;;;;;;;1.77;0.52;;;;;;;;;;4957249;28;20066;-81
2023/10/08 14:16:22;;;;;;;1.50;0.45;;;;;;;;;;4961911;28;20027;-81
2023/10/08 14:18:53;;;;;;;1.55;0.50;;;;;;;;;;4957658;28;20493;-83
2023/10/08 14:21:23;;;;;;;4.00;0.52;;;;;;;;;;4948672;28;20039;-81
2023/10/08 14:23:49;;;;;;;2.83;0.70;;;;;;;;;;4949243;28;20059;-80
2023/10/08 14:26:15;;;;;;;2.08;0.60;;;;;;;;;;4956741;28;20407;-81
2023/10/08 14:28:44;;;;;;;2.08;0.55;;;;;;;;;;4941903;28;20050;-80
2023/10/08 14:31:16;;;;;;;3.33;0.60;;;;;;;;;;4955825;28;20031;-80
2023/10/08 14:33:55;;;;;;;3.30;0.60;;;;;;;;;;4962905;28;20039;-80
2023/10/08 14:44:40;;;;;;;1.60;0.55;;;;;;;;;;4955438;28;20125;-80
2023/10/08 14:47:06;;;;;;;2.33;0.70;;;;;;;;;;4929979;28;20178;-80
2023/10/08 14:49:53;;;;;;;2.20;0.63;;;;;;;;;;4938177;28;20141;-82
2023/10/08 14:52:18;;;;;;;2.42;0.70;;;;;;;;;;4916636;29;20090;-81
2023/10/08 14:54:45;;;;;;;2.13;0.60;;;;;;;;;;4892458;29;20083;-80
2023/10/08 14:57:14;;;;;;;1.95;0.60;;;;;;;;;;4894960;29;20146;-80
2023/10/08 14:59:40;;;;;;;2.58;0.80;;;;;;;;;;4907987;29;20539;-78
2023/10/08 15:02:06;;;;;;;3.17;0.70;;;;;;;;;;4917174;29;20035;-79
2023/10/08 15:04:35;;;;;;;3.30;0.70;;;;;;;;;;4904507;29;20044;-84
2023/10/08 15:07:01;;;;;;;2.17;0.60;;;;;;;;;;4904152;29;20544;-83
2023/10/08 15:09:28;;;;;;;2.17;0.60;;;;;;;;;;4901361;29;20040;-85
2023/10/08 15:11:54;;;;;;;2.43;0.60;;;;;;;;;;4901465;28;20043;-84
2023/10/08 15:14:22;;;;;;;2.60;0.60;;;;;;;;;;4903824;29;20318;-83
2023/10/08 15:16:52;;;;;;;3.05;0.75;;;;;;;;;;4910088;29;20443;-82
2023/10/08 15:19:21;;;;;;;1.63;0.63;;;;;;;;;;4901308;29;20106;-81
2023/10/08 15:21:50;;;;;;;2.38;0.65;;;;;;;;;;4905339;29;20447;-81
2023/10/08 15:24:21;;;;;;;1.73;0.63;;;;;;;;;;4917370;29;20427;-81
2023/10/08 15:26:55;;;;;;;3.05;0.60;;;;;;;;;;4906699;29;20039;-82
2023/10/08 15:29:25;;;;;;;2.38;0.60;;;;;;;;;;4937638;28;20043;-81
2023/10/08 15:31:57;;;;;;;2.40;0.68;;;;;;;;;;4953069;28;20510;-77
2023/10/08 15:34:26;;;;;;;2.33;0.60;;;;;;;;;;4956723;28;20043;-78
2023/10/08 15:36:54;;;;;;;3.05;0.90;;;;;;;;;;4938306;28;20041;-78
2023/10/08 15:39:28;;;;;;;2.30;0.82;;;;;;;;;;4957444;28;20054;-77
2023/10/08 15:41:53;;;;;;;2.28;0.60;;;;;;;;;;4939016;28;20757;-78
2023/10/08 15:44:22;;;;;;;2.78;0.85;;;;;;;;;;4955513;28;20125;-78
2023/10/08 15:46:49;;;;;;;2.75;0.85;;;;;;;;;;4953822;28;20031;-77
2023/10/08 15:49:14;;;;;;;5.50;0.80;;;;;;;;;;4954006;28;20039;-78
2023/10/08 15:51:40;;;;;;;2.70;0.80;;;;;;;;;;4937187;28;20112;-78
2023/10/08 15:54:06;;;;;;;3.50;1.00;;;;;;;;;;4945516;28;20042;-78
2023/10/08 15:56:31;;;;;;;2.70;0.90;;;;;;;;;;4953538;28;20852;-77
2023/10/08 15:58:57;;;;;;;2.67;0.73;;;;;;;;;;4961684;28;20050;-78
2023/10/08 16:01:23;;;;;;;4.60;0.82;;;;;;;;;;4938912;28;20102;-77
2023/10/08 16:03:49;;;;;;;3.28;0.80;;;;;;;;;;4961998;28;20043;-77
2023/10/08 16:06:14;;;;;;;2.42;0.68;;;;;;;;;;4954855;28;20132;-76
2023/10/08 16:08:40;;;;;;;2.83;0.88;;;;;;;;;;4954331;28;20174;-77
2023/10/08 16:11:05;;;;;;;3.22;1.20;;;;;;;;;;4969892;28;20467;-77
2023/10/08 16:13:31;;;;;;;2.75;1.02;;;;;;;;;;4956009;28;20039;-77